Time,TemperatureF,DewpointF,PressureIn,WindDirection,WindDirectionDegrees,WindSpeedMPH,WindSpeedGustMPH,Humidity,HourlyPrecipIn,Conditions,Clouds,dailyrainin,SoftwareType,DateUTC
2013-08-16 00:09:00,57.9,42.8,30.09,North,-999,0.0,0.0,57,0.00,,,-99.99,FreeWX 2.04,2013-08-16 04:09:00,
2013-08-16 00:19:00,57.9,42.8,30.09,North,-999,0.0,0.0,57,0.00,,,-99.99,FreeWX 2.04,2013-08-16 04:19:00,
2013-08-16 00:29:00,57.7,42.6,30.09,North,-999,0.0,0.0,57,0.00,,,-99.99,FreeWX 2.04,2013-08-16 04:29:00,
2013-08-16 00:39:00,57.6,43.0,30.09,North,-999,0.0,0.0,58,0.00,,,-99.99,FreeWX 2.04,2013-08-16 04:39:00,
2013-08-16 00:49:00,57.2,43.0,30.09,North,-999,0.0,0.0,59,0.00,,,-99.99,FreeWX 2.04,2013-08-16 04:49:00,
2013-08-16 00:59:00,57.0,42.8,30.09,North,-999,0.0,0.0,59,0.00,,,-99.99,FreeWX 2.04,2013-08-16 04:59:00,
2013-08-16 01:09:00,57.0,43.3,30.09,North,-999,0.0,0.0,60,0.00,,,-99.99,FreeWX 2.04,2013-08-16 05:09:00,
2013-08-16 01:29:00,56.8,43.2,30.09,North,-999,0.0,0.0,60,0.00,,,-99.99,FreeWX 2.04,2013-08-16 05:29:00,
2013-08-16 01:39:00,56.8,43.2,30.09,North,-999,0.0,0.0,60,0.00,,,-99.99,FreeWX 2.04,2013-08-16 05:39:00,
2013-08-16 01:49:00,56.7,43.3,30.09,North,-999,0.0,0.0,61,0.00,,,-99.99,FreeWX 2.04,2013-08-16 05:49:00,
2013-08-16 01:59:00,56.5,43.2,30.09,North,-999,0.0,0.0,61,0.00,,,-99.99,FreeWX 2.04,2013-08-16 05:59:00,
2013-08-16 02:09:00,56.3,43.5,30.09,North,-999,0.0,0.0,62,0.00,,,-99.99,FreeWX 2.04,2013-08-16 06:09:00,
2013-08-16 02:19:00,56.3,43.5,30.09,North,-999,0.0,0.0,62,0.00,,,-99.99,FreeWX 2.04,2013-08-16 06:19:00,
2013-08-16 02:29:00,56.1,43.7,30.09,North,-999,0.0,0.0,63,0.00,,,-99.99,FreeWX 2.04,2013-08-16 06:29:00,
2013-08-16 02:39:00,56.1,43.7,30.09,North,-999,0.0,0.0,63,0.00,,,-99.99,FreeWX 2.04,2013-08-16 06:39:00,
2013-08-16 02:49:00,55.9,43.5,30.09,North,-999,0.0,0.0,63,0.00,,,-99.99,FreeWX 2.04,2013-08-16 06:49:00,
2013-08-16 02:59:00,55.9,43.5,30.09,North,-999,0.0,0.0,63,0.00,,,-99.99,FreeWX 2.04,2013-08-16 06:59:00,
2013-08-16 03:09:00,55.9,43.5,30.09,North,-999,0.0,0.0,63,0.00,,,-99.99,FreeWX 2.04,2013-08-16 07:09:00,
2013-08-16 03:20:00,56.1,43.7,30.09,North,-999,0.0,0.0,63,0.00,,,-99.99,FreeWX 2.04,2013-08-16 07:20:00,
2013-08-16 03:30:00,56.1,43.7,30.09,North,-999,0.0,0.0,63,0.00,,,-99.99,FreeWX 2.04,2013-08-16 07:30:00,
2013-08-16 03:40:00,56.1,43.7,30.09,North,-999,0.0,0.0,63,0.00,,,-99.99,FreeWX 2.04,2013-08-16 07:40:00,
2013-08-16 03:50:00,56.1,43.7,30.09,North,-999,0.0,0.0,63,0.00,,,-99.99,FreeWX 2.04,2013-08-16 07:50:00,
2013-08-16 04:00:00,56.1,43.7,30.09,North,-999,0.0,0.0,63,0.00,,,-99.99,FreeWX 2.04,2013-08-16 08:00:00,
2013-08-16 04:10:00,56.1,43.7,30.09,North,-999,0.0,0.0,63,0.00,,,-99.99,FreeWX 2.04,2013-08-16 08:10:00,
2013-08-16 04:20:00,55.8,43.3,30.09,North,-999,0.0,0.0,63,0.00,,,-99.99,FreeWX 2.04,2013-08-16 08:20:00,
2013-08-16 04:30:00,55.8,43.7,30.09,North,-999,0.0,0.0,64,0.00,,,-99.99,FreeWX 2.04,2013-08-16 08:30:00,
2013-08-16 04:40:00,55.6,43.5,30.09,North,-999,0.0,0.0,64,0.00,,,-99.99,FreeWX 2.04,2013-08-16 08:40:00,
2013-08-16 04:50:00,55.4,43.0,30.09,North,-999,0.0,0.0,63,0.00,,,-99.99,FreeWX 2.04,2013-08-16 08:50:00,
2013-08-16 05:00:00,55.4,43.3,30.09,North,-999,0.0,0.0,64,0.00,,,-99.99,FreeWX 2.04,2013-08-16 09:00:00,
2013-08-16 05:10:00,55.2,43.3,30.09,North,-999,0.0,0.0,64,0.00,,,-99.99,FreeWX 2.04,2013-08-16 09:10:00,
2013-08-16 05:20:00,55.2,43.3,30.09,North,-999,0.0,0.0,64,0.00,,,-99.99,FreeWX 2.04,2013-08-16 09:20:00,
2013-08-16 05:30:00,55.4,43.9,30.09,North,-999,0.0,0.0,65,0.00,,,-99.99,FreeWX 2.04,2013-08-16 09:30:00,
2013-08-16 05:40:00,55.4,43.9,30.09,North,-999,0.0,0.0,65,0.00,,,-99.99,FreeWX 2.04,2013-08-16 09:40:00,
2013-08-16 05:50:00,55.4,43.9,30.09,North,-999,0.0,0.0,65,0.00,,,-99.99,FreeWX 2.04,2013-08-16 09:50:00,
2013-08-16 06:00:00,55.0,43.2,30.09,North,-999,0.0,0.0,64,0.00,,,-99.99,FreeWX 2.04,2013-08-16 10:00:00,
2013-08-16 06:10:00,55.2,43.7,30.09,North,-999,0.0,0.0,65,0.00,,,-99.99,FreeWX 2.04,2013-08-16 10:10:00,
2013-08-16 06:20:00,55.2,43.7,30.09,North,-999,0.0,0.0,65,0.00,,,-99.99,FreeWX 2.04,2013-08-16 10:20:00,
2013-08-16 06:30:00,54.9,43.3,30.09,North,-999,0.0,0.0,65,0.00,,,-99.99,FreeWX 2.04,2013-08-16 10:30:00,
2013-08-16 06:40:00,55.0,43.5,30.09,North,-999,0.0,0.0,65,0.00,,,-99.99,FreeWX 2.04,2013-08-16 10:40:00,
2013-08-16 06:50:00,54.9,43.3,30.09,North,-999,0.0,0.0,65,0.00,,,-99.99,FreeWX 2.04,2013-08-16 10:50:00,
2013-08-16 07:00:00,54.7,43.2,30.09,North,-999,0.0,0.0,65,0.00,,,-99.99,FreeWX 2.04,2013-08-16 11:00:00,
2013-08-16 07:10:00,54.9,43.3,30.09,North,-999,0.0,0.0,65,0.00,,,-99.99,FreeWX 2.04,2013-08-16 11:10:00,
2013-08-16 07:20:00,55.0,43.9,30.12,North,-999,0.0,0.0,66,0.00,,,-99.99,FreeWX 2.04,2013-08-16 11:20:00,
2013-08-16 07:30:00,55.2,44.1,30.12,North,-999,0.0,0.0,66,0.00,,,-99.99,FreeWX 2.04,2013-08-16 11:30:00,
2013-08-16 07:40:00,55.6,44.4,30.12,North,-999,0.0,0.0,66,0.00,,,-99.99,FreeWX 2.04,2013-08-16 11:40:00,
2013-08-16 07:50:00,55.8,45.0,30.12,North,-999,0.0,0.0,67,0.00,,,-99.99,FreeWX 2.04,2013-08-16 11:50:00,
2013-08-16 08:00:00,56.1,45.3,30.12,North,-999,0.0,0.0,67,0.00,,,-99.99,FreeWX 2.04,2013-08-16 12:00:00,
2013-08-16 08:10:00,56.3,45.5,30.12,North,-999,0.0,0.0,67,0.00,,,-99.99,FreeWX 2.04,2013-08-16 12:10:00,
2013-08-16 08:20:00,56.8,46.4,30.12,North,-999,0.0,0.0,68,0.00,,,-99.99,FreeWX 2.04,2013-08-16 12:20:00,
2013-08-16 08:31:00,57.6,47.1,30.12,North,-999,0.0,0.0,68,0.00,,,-99.99,FreeWX 2.04,2013-08-16 12:31:00,
2013-08-16 08:41:00,58.6,48.6,30.12,North,-999,0.0,0.0,69,0.00,,,-99.99,FreeWX 2.04,2013-08-16 12:41:00,
2013-08-16 08:51:00,59.5,49.3,30.12,North,-999,0.0,0.0,69,0.00,,,-99.99,FreeWX 2.04,2013-08-16 12:51:00,
2013-08-16 09:01:00,60.3,50.0,30.12,North,-999,0.0,0.0,69,0.00,,,-99.99,FreeWX 2.04,2013-08-16 13:01:00,
2013-08-16 09:11:00,61.0,50.7,30.12,North,-999,0.0,0.0,69,0.00,,,-99.99,FreeWX 2.04,2013-08-16 13:11:00,
2013-08-16 09:21:00,61.7,49.8,30.12,North,-999,0.0,2.7,65,0.00,,,-99.99,FreeWX 2.04,2013-08-16 13:21:00,
2013-08-16 09:31:00,62.2,49.5,30.12,North,-999,0.0,0.0,63,0.00,,,-99.99,FreeWX 2.04,2013-08-16 13:31:00,
2013-08-16 09:41:00,63.0,48.4,30.12,North,-999,0.0,0.0,59,0.00,,,-99.99,FreeWX 2.04,2013-08-16 13:41:00,
2013-08-16 09:51:00,63.7,47.1,30.12,North,-999,0.0,0.0,55,0.00,,,-99.99,FreeWX 2.04,2013-08-16 13:51:00,
2013-08-16 10:01:00,65.1,49.1,30.12,North,-999,0.0,0.0,56,0.00,,,-99.99,FreeWX 2.04,2013-08-16 14:01:00,
2013-08-16 10:11:00,66.4,47.7,30.12,North,-999,0.0,0.0,51,0.00,,,-99.99,FreeWX 2.04,2013-08-16 14:11:00,
2013-08-16 10:21:00,66.7,45.9,30.12,North,-999,0.0,0.0,47,0.00,,,-99.99,FreeWX 2.04,2013-08-16 14:21:00,
2013-08-16 10:31:00,67.5,46.6,30.12,North,-999,0.0,0.0,47,0.00,,,-99.99,FreeWX 2.04,2013-08-16 14:31:00,
2013-08-16 10:41:00,68.2,47.1,30.12,North,-999,0.0,0.0,47,0.00,,,-99.99,FreeWX 2.04,2013-08-16 14:41:00,
2013-08-16 10:51:00,69.8,46.9,30.12,North,-999,0.0,0.0,44,0.00,,,-99.99,FreeWX 2.04,2013-08-16 14:51:00,
2013-08-16 11:01:00,70.7,42.4,30.12,North,-999,0.0,0.0,36,0.00,,,-99.99,FreeWX 2.04,2013-08-16 15:01:00,
2013-08-16 11:11:00,70.9,44.1,30.12,North,-999,0.0,0.0,38,0.00,,,-99.99,FreeWX 2.04,2013-08-16 15:11:00,
2013-08-16 11:21:00,71.1,44.2,30.12,North,-999,0.0,0.0,38,0.00,,,-99.99,FreeWX 2.04,2013-08-16 15:21:00,
2013-08-16 11:31:00,72.9,43.5,30.12,North,-999,0.0,0.0,35,0.00,,,-99.99,FreeWX 2.04,2013-08-16 15:31:00,
2013-08-16 11:41:00,73.8,42.1,30.12,North,-999,0.0,0.0,32,0.00,,,-99.99,FreeWX 2.04,2013-08-16 15:41:00,
2013-08-16 11:51:00,73.2,42.4,30.12,North,-999,0.0,0.0,33,0.00,,,-99.99,FreeWX 2.04,2013-08-16 15:51:00,
2013-08-16 12:01:00,73.8,39.6,30.12,North,-999,0.0,4.0,29,0.00,,,-99.99,FreeWX 2.04,2013-08-16 16:01:00,
2013-08-16 12:11:00,74.5,37.4,30.12,North,-999,0.0,4.5,26,0.00,,,-99.99,FreeWX 2.04,2013-08-16 16:11:00,
2013-08-16 12:21:00,75.7,37.4,30.12,North,-999,0.0,3.1,25,0.00,,,-99.99,FreeWX 2.04,2013-08-16 16:21:00,
2013-08-16 12:31:00,76.1,35.6,30.12,North,-999,0.0,3.6,23,0.00,,,-99.99,FreeWX 2.04,2013-08-16 16:31:00,
2013-08-16 12:41:00,77.0,35.2,30.12,North,-999,0.0,0.0,22,0.00,,,-99.99,FreeWX 2.04,2013-08-16 16:41:00,
2013-08-16 12:51:00,77.9,37.0,30.12,North,-999,0.0,2.7,23,0.00,,,-99.99,FreeWX 2.04,2013-08-16 16:51:00,
2013-08-16 13:01:00,79.0,35.8,30.12,North,-999,0.0,2.7,21,0.00,,,-99.99,FreeWX 2.04,2013-08-16 17:01:00,
2013-08-16 13:11:00,78.8,35.6,30.12,North,-999,0.0,0.0,21,0.00,,,-99.99,FreeWX 2.04,2013-08-16 17:11:00,
2013-08-16 13:21:00,77.9,34.9,30.12,North,-999,0.0,0.0,21,0.00,,,-99.99,FreeWX 2.04,2013-08-16 17:21:00,
2013-08-16 13:31:00,78.3,33.8,30.12,North,-999,0.0,4.5,20,0.00,,,-99.99,FreeWX 2.04,2013-08-16 17:31:00,
2013-08-16 13:41:00,78.8,37.9,30.12,North,-999,0.0,0.0,23,0.00,,,-99.99,FreeWX 2.04,2013-08-16 17:41:00,
2013-08-16 13:51:00,77.4,34.3,30.12,North,-999,0.0,0.0,21,0.00,,,-99.99,FreeWX 2.04,2013-08-16 17:51:00,
2013-08-16 14:01:00,79.7,37.4,30.12,North,-999,0.0,0.0,22,0.00,,,-99.99,FreeWX 2.04,2013-08-16 18:01:00,
2013-08-16 14:11:00,80.8,36.0,30.12,North,-999,0.0,0.0,20,0.00,,,-99.99,FreeWX 2.04,2013-08-16 18:11:00,
2013-08-16 14:21:00,82.2,35.8,30.09,North,-999,0.0,3.6,19,0.00,,,-99.99,FreeWX 2.04,2013-08-16 18:21:00,
2013-08-16 14:31:00,81.5,35.2,30.09,North,-999,0.0,2.7,19,0.00,,,-99.99,FreeWX 2.04,2013-08-16 18:31:00,
2013-08-16 14:41:00,80.4,35.6,30.09,North,-999,0.0,0.0,20,0.00,,,-99.99,FreeWX 2.04,2013-08-16 18:41:00,
2013-08-16 14:51:00,79.0,35.8,30.09,North,-999,0.0,0.0,21,0.00,,,-99.99,FreeWX 2.04,2013-08-16 18:51:00,
2013-08-16 15:01:00,77.9,42.1,30.09,North,-999,0.0,0.0,28,0.00,,,-99.99,FreeWX 2.04,2013-08-16 19:01:00,
2013-08-16 15:11:00,77.7,43.9,30.09,North,-999,0.0,0.0,30,0.00,,,-99.99,FreeWX 2.04,2013-08-16 19:11:00,
2013-08-16 15:21:00,79.0,37.9,30.09,North,-999,0.0,0.0,23,0.00,,,-99.99,FreeWX 2.04,2013-08-16 19:21:00,
2013-08-16 15:31:00,79.9,36.5,30.09,North,-999,0.0,0.0,21,0.00,,,-99.99,FreeWX 2.04,2013-08-16 19:31:00,
2013-08-16 15:41:00,82.0,38.3,30.09,North,-999,0.0,0.0,21,0.00,,,-99.99,FreeWX 2.04,2013-08-16 19:41:00,
2013-08-16 15:51:00,79.3,36.0,30.09,North,-999,0.0,0.0,21,0.00,,,-99.99,FreeWX 2.04,2013-08-16 19:51:00,
2013-08-16 16:01:00,81.1,38.7,30.09,North,-999,0.0,3.1,22,0.00,,,-99.99,FreeWX 2.04,2013-08-16 20:01:00,
2013-08-16 16:12:00,81.3,36.3,30.09,North,-999,0.0,0.0,20,0.00,,,-99.99,FreeWX 2.04,2013-08-16 20:12:00,
2013-08-16 16:22:00,77.9,36.0,30.09,North,-999,0.0,0.0,22,0.00,,,-99.99,FreeWX 2.04,2013-08-16 20:22:00,
2013-08-16 16:32:00,78.3,38.5,30.09,North,-999,0.0,0.0,24,0.00,,,-99.99,FreeWX 2.04,2013-08-16 20:32:00,
2013-08-16 16:42:00,78.3,36.3,30.09,North,-999,0.0,0.0,22,0.00,,,-99.99,FreeWX 2.04,2013-08-16 20:42:00,
2013-08-16 16:52:00,77.7,37.0,30.09,North,-999,0.0,0.0,23,0.00,,,-99.99,FreeWX 2.04,2013-08-16 20:52:00,
2013-08-16 17:02:00,77.2,37.6,30.09,North,-999,0.0,3.1,24,0.00,,,-99.99,FreeWX 2.04,2013-08-16 21:02:00,
2013-08-16 17:12:00,77.0,38.5,30.09,North,-999,0.0,0.0,25,0.00,,,-99.99,FreeWX 2.04,2013-08-16 21:12:00,
2013-08-16 17:22:00,76.1,36.7,30.09,North,-999,0.0,0.0,24,0.00,,,-99.99,FreeWX 2.04,2013-08-16 21:22:00,
2013-08-16 17:32:00,75.9,38.5,30.09,North,-999,0.0,0.0,26,0.00,,,-99.99,FreeWX 2.04,2013-08-16 21:32:00,
2013-08-16 17:42:00,75.7,38.5,30.09,North,-999,0.0,0.0,26,0.00,,,-99.99,FreeWX 2.04,2013-08-16 21:42:00,
2013-08-16 17:52:00,75.2,38.8,30.09,North,-999,0.0,3.1,27,0.00,,,-99.99,FreeWX 2.04,2013-08-16 21:52:00,
2013-08-16 18:02:00,75.0,38.8,30.09,North,-999,0.0,0.0,27,0.00,,,-99.99,FreeWX 2.04,2013-08-16 22:02:00,
2013-08-16 18:12:00,74.7,36.5,30.09,North,-999,0.0,3.1,25,0.00,,,-99.99,FreeWX 2.04,2013-08-16 22:12:00,
2013-08-16 18:22:00,74.3,38.1,30.09,North,-999,0.0,0.0,27,0.00,,,-99.99,FreeWX 2.04,2013-08-16 22:22:00,
2013-08-16 18:32:00,73.9,39.7,30.09,North,-999,0.0,0.0,29,0.00,,,-99.99,FreeWX 2.04,2013-08-16 22:32:00,
2013-08-16 18:42:00,73.9,40.5,30.09,North,-999,0.0,0.0,30,0.00,,,-99.99,FreeWX 2.04,2013-08-16 22:42:00,
2013-08-16 18:52:00,73.6,41.0,30.09,North,-999,0.0,0.0,31,0.00,,,-99.99,FreeWX 2.04,2013-08-16 22:52:00,
2013-08-16 19:02:00,73.6,41.9,30.09,North,-999,0.0,0.0,32,0.00,,,-99.99,FreeWX 2.04,2013-08-16 23:02:00,
2013-08-16 19:12:00,72.9,42.8,30.09,North,-999,0.0,0.0,34,0.00,,,-99.99,FreeWX 2.04,2013-08-16 23:12:00,
2013-08-16 19:22:00,72.3,44.6,30.09,North,-999,0.0,0.0,37,0.00,,,-99.99,FreeWX 2.04,2013-08-16 23:22:00,
2013-08-16 19:32:00,71.6,44.6,30.09,North,-999,0.0,0.0,38,0.00,,,-99.99,FreeWX 2.04,2013-08-16 23:32:00,
2013-08-16 19:42:00,70.9,44.6,30.09,North,-999,0.0,0.0,39,0.00,,,-99.99,FreeWX 2.04,2013-08-16 23:42:00,
2013-08-16 19:52:00,70.5,46.9,30.09,North,-999,0.0,0.0,43,0.00,,,-99.99,FreeWX 2.04,2013-08-16 23:52:00,
2013-08-16 20:02:00,70.2,46.6,30.09,North,-999,0.0,0.0,43,0.00,,,-99.99,FreeWX 2.04,2013-08-17 00:02:00,
2013-08-16 20:12:00,69.8,46.2,30.09,North,-999,0.0,0.0,43,0.00,,,-99.99,FreeWX 2.04,2013-08-17 00:12:00,
2013-08-16 20:22:00,69.3,46.9,30.09,North,-999,0.0,0.0,45,0.00,,,-99.99,FreeWX 2.04,2013-08-17 00:22:00,
2013-08-16 20:32:00,68.9,46.8,30.09,North,-999,0.0,0.0,45,0.00,,,-99.99,FreeWX 2.04,2013-08-17 00:32:00,
2013-08-16 20:42:00,68.4,46.8,30.09,North,-999,0.0,0.0,46,0.00,,,-99.99,FreeWX 2.04,2013-08-17 00:42:00,
2013-08-16 20:52:00,68.0,46.9,30.09,North,-999,0.0,0.0,47,0.00,,,-99.99,FreeWX 2.04,2013-08-17 00:52:00,
2013-08-16 21:02:00,67.5,46.6,30.09,North,-999,0.0,0.0,47,0.00,,,-99.99,FreeWX 2.04,2013-08-17 01:02:00,
2013-08-16 21:12:00,66.9,46.0,30.12,North,-999,0.0,0.0,47,0.00,,,-99.99,FreeWX 2.04,2013-08-17 01:12:00,
2013-08-16 21:22:00,66.6,46.2,30.12,North,-999,0.0,0.0,48,0.00,,,-99.99,FreeWX 2.04,2013-08-17 01:22:00,
2013-08-16 21:32:00,66.0,46.2,30.12,North,-999,0.0,0.0,49,0.00,,,-99.99,FreeWX 2.04,2013-08-17 01:32:00,
2013-08-16 21:42:00,65.7,46.0,30.12,North,-999,0.0,0.0,49,0.00,,,-99.99,FreeWX 2.04,2013-08-17 01:42:00,
2013-08-16 21:52:00,65.3,46.8,30.12,North,-999,0.0,0.0,51,0.00,,,-99.99,FreeWX 2.04,2013-08-17 01:52:00,
2013-08-16 22:02:00,64.8,46.8,30.12,North,-999,0.0,0.0,52,0.00,,,-99.99,FreeWX 2.04,2013-08-17 02:02:00,
2013-08-16 22:12:00,64.8,47.3,30.12,North,-999,0.0,0.0,53,0.00,,,-99.99,FreeWX 2.04,2013-08-17 02:12:00,
2013-08-16 22:22:00,64.6,47.5,30.12,North,-999,0.0,0.0,54,0.00,,,-99.99,FreeWX 2.04,2013-08-17 02:22:00,
2013-08-16 22:32:00,64.2,47.3,30.12,North,-999,0.0,0.0,54,0.00,,,-99.99,FreeWX 2.04,2013-08-17 02:32:00,
2013-08-16 22:42:00,63.9,46.9,30.12,North,-999,0.0,0.0,54,0.00,,,-99.99,FreeWX 2.04,2013-08-17 02:42:00,
2013-08-16 22:52:00,63.3,47.3,30.12,North,-999,0.0,0.0,56,0.00,,,-99.99,FreeWX 2.04,2013-08-17 02:52:00,
2013-08-16 23:02:00,63.1,47.7,30.12,North,-999,0.0,0.0,57,0.00,,,-99.99,FreeWX 2.04,2013-08-17 03:02:00,
2013-08-16 23:12:00,62.8,47.3,30.12,North,-999,0.0,0.0,57,0.00,,,-99.99,FreeWX 2.04,2013-08-17 03:12:00,
2013-08-16 23:22:00,62.6,47.7,30.12,North,-999,0.0,0.0,58,0.00,,,-99.99,FreeWX 2.04,2013-08-17 03:22:00,
2013-08-16 23:32:00,62.4,47.5,30.12,North,-999,0.0,0.0,58,0.00,,,-99.99,FreeWX 2.04,2013-08-17 03:32:00,
2013-08-16 23:42:00,62.4,47.8,30.12,North,-999,0.0,0.0,59,0.00,,,-99.99,FreeWX 2.04,2013-08-17 03:42:00,
2013-08-16 23:52:00,62.2,47.7,30.12,North,-999,0.0,0.0,59,0.00,,,-99.99,FreeWX 2.04,2013-08-17 03:52:00,